Time;durP1;ratioP1;P1;durP2;ratioP2;P2;SDS_P1;SDS_P2;PMS_P1;PMS_P2;Temp;Humidity;BMP_temperature;BMP_pressure;BME280_temperature;BME280_humidity;BME280_pressure;Samples;Min_cycle;Max_cycle;Signal;HPM_P1;HPM_P2
2022/06/22 00:01:52;;;;;;;11.57;6.32;;;15.90;99.90;;;;;;5096429;28;20196;-74
2022/06/22 00:04:22;;;;;;;10.38;6.57;;;15.80;99.90;;;;;;5101769;28;20250;-71
2022/06/22 00:06:54;;;;;;;7.65;6.50;;;15.80;99.90;;;;;;5096080;28;20245;-73
2022/06/22 00:09:26;;;;;;;6.93;5.93;;;15.70;99.90;;;;;;5090064;28;20294;-73
2022/06/22 00:11:54;;;;;;;8.35;6.78;;;15.70;99.90;;;;;;5089341;28;20226;-71
2022/06/22 00:14:27;;;;;;;9.02;6.68;;;15.60;99.90;;;;;;5097570;28;20199;-70
2022/06/22 00:16:57;;;;;;;9.20;7.38;;;15.50;99.90;;;;;;5082800;28;20203;-71
2022/06/22 00:19:29;;;;;;;9.60;8.10;;;15.40;99.90;;;;;;5082156;28;20211;-72
2022/06/22 00:21:57;;;;;;;9.15;6.88;;;15.30;99.90;;;;;;5080809;28;20202;-70
2022/06/22 00:24:39;;;;;;;10.10;6.95;;;15.30;99.90;;;;;;5086481;28;20218;-69
2022/06/22 00:27:27;;;;;;;9.20;7.07;;;15.30;99.90;;;;;;5087144;28;20210;-67
2022/06/22 00:30:12;;;;;;;9.55;7.50;;;15.20;99.90;;;;;;5086481;28;20238;-70
2022/06/22 00:32:52;;;;;;;12.15;7.07;;;15.20;99.90;;;;;;5088074;28;20223;-70
2022/06/22 00:35:46;;;;;;;9.68;7.30;;;15.10;99.90;;;;;;5091631;28;20202;-70
2022/06/22 00:38:17;;;;;;;8.05;7.07;;;15.00;99.90;;;;;;5078538;28;20199;-70
2022/06/22 00:40:47;;;;;;;10.35;8.27;;;15.00;99.90;;;;;;5087607;28;20221;-69
2022/06/22 00:43:17;;;;;;;10.25;6.43;;;14.90;99.90;;;;;;5080729;28;20237;-70
2022/06/22 00:45:45;;;;;;;13.27;7.60;;;14.90;99.90;;;;;;5086786;28;20264;-70
2022/06/22 00:48:23;;;;;;;10.77;6.75;;;15.00;99.90;;;;;;5087482;28;20272;-69
2022/06/22 00:50:58;;;;;;;8.65;7.75;;;14.90;99.90;;;;;;5084704;28;20219;-69
2022/06/22 00:53:33;;;;;;;8.93;7.18;;;14.80;99.90;;;;;;5085983;28;20256;-71
2022/06/22 00:56:09;;;;;;;12.38;8.50;;;14.80;99.90;;;;;;5086558;28;20197;-70
2022/06/22 00:58:44;;;;;;;8.98;6.95;;;14.80;99.90;;;;;;5082222;28;20186;-71
2022/06/22 01:01:23;;;;;;;10.70;7.07;;;14.70;99.90;;;;;;5075272;28;20493;-70
2022/06/22 01:03:59;;;;;;;9.93;7.68;;;14.70;99.90;;;;;;5084764;28;20225;-72
2022/06/22 01:06:33;;;;;;;7.18;6.53;;;14.70;99.90;;;;;;5077825;28;20474;-68
2022/06/22 01:09:05;;;;;;;10.77;7.75;;;14.70;99.90;;;;;;5082976;28;20213;-70
2022/06/22 01:14:28;;;;;;;11.98;8.27;;;14.70;99.90;;;;;;5075836;28;20238;-72
2022/06/22 01:17:00;;;;;;;11.60;8.55;;;14.60;99.90;;;;;;5083656;28;20199;-69
2022/06/22 01:19:44;;;;;;;12.25;7.80;;;14.60;99.90;;;;;;5078439;28;20221;-72
2022/06/22 01:22:23;;;;;;;10.70;7.03;;;14.50;99.90;;;;;;5083326;28;20201;-71
2022/06/22 01:24:58;;;;;;;11.15;9.15;;;14.50;99.90;;;;;;5077805;28;20314;-71
2022/06/22 01:27:34;;;;;;;10.98;9.63;;;14.50;99.90;;;;;;5072037;28;20198;-73
2022/06/22 01:30:04;;;;;;;13.63;9.23;;;14.50;99.90;;;;;;5080033;28;20221;-72
2022/06/22 01:32:35;;;;;;;11.10;8.68;;;14.50;99.90;;;;;;5086180;28;20411;-71
2022/06/22 01:35:05;;;;;;;18.73;10.95;;;14.50;99.90;;;;;;5085794;28;20214;-69
2022/06/22 01:37:34;;;;;;;11.30;10.10;;;14.40;99.90;;;;;;5085166;28;20398;-71
2022/06/22 01:40:11;;;;;;;11.35;9.65;;;14.40;99.90;;;;;;5077721;28;20246;-71
2022/06/22 01:42:46;;;;;;;13.07;9.88;;;14.40;99.90;;;;;;5085171;28;20249;-71
2022/06/22 01:45:23;;;;;;;10.25;9.10;;;14.40;99.90;;;;;;5079153;28;20195;-69
2022/06/22 01:47:54;;;;;;;12.10;9.38;;;14.30;99.90;;;;;;5077341;28;20257;-72
2022/06/22 01:50:27;;;;;;;14.80;12.82;;;14.40;99.90;;;;;;5084685;28;20326;-70
2022/06/22 01:53:04;;;;;;;14.95;10.65;;;14.30;99.90;;;;;;5081236;28;20186;-71
2022/06/22 01:55:37;;;;;;;14.02;9.55;;;14.30;99.90;;;;;;5079137;28;20204;-70
2022/06/22 01:58:25;;;;;;;12.88;11.15;;;14.30;99.90;;;;;;5083089;28;20187;-70
2022/06/22 02:00:57;;;;;;;15.05;11.23;;;14.30;99.90;;;;;;5082515;28;20206;-70
2022/06/22 02:03:28;;;;;;;15.63;11.63;;;14.20;99.90;;;;;;5084908;28;20250;-70
2022/06/22 02:06:01;;;;;;;17.33;11.95;;;14.20;99.90;;;;;;5079145;28;20191;-71
2022/06/22 02:08:33;;;;;;;15.98;11.30;;;14.20;99.90;;;;;;5087246;28;20189;-69
2022/06/22 02:11:05;;;;;;;15.40;12.25;;;14.10;99.90;;;;;;5099735;28;20211;-72
2022/06/22 02:13:40;;;;;;;14.27;12.57;;;14.20;99.90;;;;;;5090113;28;20202;-70
2022/06/22 02:16:14;;;;;;;14.45;12.30;;;14.10;99.90;;;;;;5090172;28;20190;-72
2022/06/22 02:18:46;;;;;;;13.38;10.45;;;14.10;99.90;;;;;;5092656;28;20382;-72
2022/06/22 02:21:25;;;;;;;20.40;12.98;;;14.10;99.90;;;;;;5087344;28;20211;-73
2022/06/22 02:24:00;;;;;;;19.25;12.80;;;14.10;99.90;;;;;;5084975;28;20226;-71
2022/06/22 02:26:34;;;;;;;17.85;12.93;;;14.10;99.90;;;;;;5085085;28;20205;-70
2022/06/22 02:29:03;;;;;;;14.60;11.52;;;14.00;99.90;;;;;;5089221;28;20251;-71
2022/06/22 02:31:32;;;;;;;16.00;11.45;;;14.00;99.90;;;;;;5088029;28;20215;-69
2022/06/22 02:33:59;;;;;;;16.48;11.90;;;14.00;99.90;;;;;;5091621;28;20214;-72
2022/06/22 02:36:30;;;;;;;14.40;12.18;;;14.00;99.90;;;;;;5077995;28;20183;-71
2022/06/22 02:39:00;;;;;;;15.10;11.50;;;14.10;99.90;;;;;;5082970;28;20339;-73
2022/06/22 02:44:32;;;;;;;15.10;11.20;;;14.10;99.90;;;;;;5087759;28;20271;-69
2022/06/22 02:47:01;;;;;;;15.63;13.00;;;14.00;99.90;;;;;;5085708;28;20201;-72
2022/06/22 02:49:33;;;;;;;18.98;13.63;;;14.00;99.90;;;;;;5084038;28;20210;-72
2022/06/22 02:52:03;;;;;;;13.00;11.20;;;14.00;99.90;;;;;;5073421;28;20454;-69
2022/06/22 02:54:33;;;;;;;12.77;10.60;;;14.00;99.90;;;;;;5081832;28;20222;-72
2022/06/22 02:57:10;;;;;;;13.40;11.98;;;14.00;99.90;;;;;;5086870;28;20194;-73
2022/06/22 02:59:39;;;;;;;15.43;10.90;;;14.00;99.90;;;;;;5086957;28;20218;-67
2022/06/22 03:02:08;;;;;;;14.80;12.10;;;14.00;99.90;;;;;;5083729;28;20238;-71
2022/06/22 03:04:34;;;;;;;16.17;12.75;;;14.00;99.90;;;;;;5083943;28;20466;-69
2022/06/22 03:07:04;;;;;;;13.68;10.63;;;13.90;99.90;;;;;;5086965;28;20222;-70
2022/06/22 03:09:31;;;;;;;15.63;11.50;;;13.90;99.90;;;;;;5087397;28;20209;-71
2022/06/22 03:12:00;;;;;;;13.30;10.60;;;13.90;99.90;;;;;;5087636;28;20201;-73
2022/06/22 03:14:31;;;;;;;15.95;11.85;;;13.90;99.90;;;;;;5078160;28;20222;-71
2022/06/22 03:17:02;;;;;;;15.05;11.13;;;13.90;99.90;;;;;;5083295;28;20272;-69
2022/06/22 03:19:36;;;;;;;13.45;10.70;;;13.90;99.90;;;;;;5077753;28;20229;-70
2022/06/22 03:22:03;;;;;;;12.77;10.32;;;13.90;99.90;;;;;;5081614;28;20266;-69
2022/06/22 03:24:37;;;;;;;21.65;12.77;;;13.90;99.90;;;;;;5085099;28;20237;-69
2022/06/22 03:27:11;;;;;;;14.57;11.20;;;13.90;99.90;;;;;;5084407;28;20194;-73
2022/06/22 03:29:45;;;;;;;18.52;11.30;;;13.90;99.90;;;;;;5082747;28;20220;-71
2022/06/22 03:32:20;;;;;;;14.27;12.45;;;13.90;99.90;;;;;;5086679;28;20214;-70
2022/06/22 03:34:55;;;;;;;16.08;11.85;;;13.90;99.90;;;;;;5086703;28;20292;-71
2022/06/22 03:37:29;;;;;;;14.60;13.00;;;13.90;99.90;;;;;;5080754;28;20190;-70
2022/06/22 03:40:01;;;;;;;24.02;13.73;;;13.90;99.90;;;;;;5082667;28;20202;-74
2022/06/22 03:42:33;;;;;;;13.10;10.60;;;13.90;99.90;;;;;;5076225;28;20187;-71
2022/06/22 03:45:14;;;;;;;17.15;13.80;;;13.90;99.90;;;;;;5085355;28;20275;-72
2022/06/22 03:47:52;;;;;;;16.23;13.82;;;13.90;99.90;;;;;;5075958;28;20187;-70
2022/06/22 03:50:25;;;;;;;15.90;13.15;;;13.90;99.90;;;;;;5086415;28;20226;-69
2022/06/22 03:52:58;;;;;;;15.57;12.20;;;14.00;99.90;;;;;;5087246;28;20188;-68
2022/06/22 03:55:30;;;;;;;16.05;12.27;;;14.00;99.90;;;;;;5088044;28;20406;-69
2022/06/22 03:57:59;;;;;;;13.55;12.07;;;14.00;99.90;;;;;;5078652;28;20241;-70
2022/06/22 04:00:26;;;;;;;15.43;12.27;;;14.10;99.90;;;;;;5082902;28;20245;-72
2022/06/22 04:02:56;;;;;;;20.13;11.95;;;14.20;99.90;;;;;;5078750;28;20195;-69
2022/06/22 04:05:28;;;;;;;16.13;10.95;;;14.40;99.90;;;;;;5082663;28;20333;-71
2022/06/22 04:07:56;;;;;;;11.55;10.35;;;15.10;99.90;;;;;;5081126;28;20179;-70
2022/06/22 04:10:40;;;;;;;15.18;10.50;;;16.10;99.90;;;;;;5081539;28;20475;-71
2022/06/22 04:13:17;;;;;;;16.35;10.40;;;17.10;99.90;;;;;;5079498;28;20191;-72
2022/06/22 04:15:50;;;;;;;16.13;10.70;;;18.00;99.90;;;;;;5086100;28;20193;-70
2022/06/22 04:18:22;;;;;;;14.43;11.30;;;18.90;99.90;;;;;;5078161;28;20194;-70
2022/06/22 04:20:54;;;;;;;10.53;9.43;;;19.40;99.90;;;;;;5077683;28;20210;-69
2022/06/22 04:23:28;;;;;;;18.50;10.00;;;20.10;99.90;;;;;;5081626;28;20418;-72
2022/06/22 04:25:59;;;;;;;12.67;9.03;;;20.90;99.90;;;;;;5092042;28;20543;-69
2022/06/22 04:31:54;;;;;;;11.93;10.10;;;22.10;97.90;;;;;;5086643;28;20411;-70
2022/06/22 04:34:33;;;;;;;12.47;9.13;;;22.60;96.00;;;;;;5079843;28;20432;-70
2022/06/22 04:37:02;;;;;;;13.13;7.97;;;23.00;95.00;;;;;;5083756;28;20463;-71
2022/06/22 04:39:34;;;;;;;11.27;10.17;;;23.60;93.80;;;;;;5084346;28;20445;-71
2022/06/22 04:42:02;;;;;;;12.73;9.80;;;24.30;92.50;;;;;;5081891;28;20523;-71
2022/06/22 04:44:32;;;;;;;8.63;7.73;;;25.00;91.30;;;;;;5080309;28;20530;-69
2022/06/22 04:47:09;;;;;;;11.20;9.93;;;25.60;90.00;;;;;;5082705;28;20550;-71
2022/06/22 04:49:45;;;;;;;14.00;11.70;;;25.80;86.40;;;;;;5082944;28;20544;-70
2022/06/22 04:52:18;;;;;;;15.40;10.20;;;25.90;86.20;;;;;;5078196;28;20547;-72
2022/06/22 04:54:46;;;;;;;12.80;10.63;;;26.10;85.40;;;;;;5085542;28;20437;-71
2022/06/22 04:57:19;;;;;;;11.90;9.23;;;26.40;84.00;;;;;;5082463;28;20434;-72
2022/06/22 04:59:50;;;;;;;13.07;10.37;;;26.50;82.90;;;;;;5085300;28;20524;-70
2022/06/22 05:02:20;;;;;;;11.87;10.77;;;26.70;82.80;;;;;;5084686;28;20437;-72
2022/06/22 05:04:51;;;;;;;14.93;10.37;;;27.10;81.40;;;;;;5085463;28;20709;-72
2022/06/22 05:07:31;;;;;;;10.17;9.27;;;27.40;80.50;;;;;;5084927;28;20436;-70
2022/06/22 05:10:06;;;;;;;13.17;10.97;;;27.90;78.90;;;;;;5084728;28;20449;-72
2022/06/22 05:12:48;;;;;;;11.67;10.47;;;28.00;77.60;;;;;;5084013;28;20546;-74
2022/06/22 05:15:28;;;;;;;13.60;10.93;;;28.20;77.10;;;;;;5085815;28;20425;-72
2022/06/22 05:17:56;;;;;;;12.27;10.13;;;28.60;76.20;;;;;;5085602;28;20437;-71
2022/06/22 05:20:31;;;;;;;13.83;11.73;;;29.10;75.00;;;;;;5085044;28;20453;-72
2022/06/22 05:23:01;;;;;;;12.73;11.30;;;29.30;73.40;;;;;;5083892;28;20436;-71
2022/06/22 05:25:30;;;;;;;12.47;11.20;;;29.10;73.20;;;;;;5085941;28;20495;-71
2022/06/22 05:28:05;;;;;;;14.50;10.53;;;28.90;73.20;;;;;;5085120;28;20489;-71
2022/06/22 05:30:36;;;;;;;14.20;12.23;;;28.70;73.70;;;;;;5081612;28;20735;-72
2022/06/22 05:33:09;;;;;;;53.37;16.23;;;28.60;73.60;;;;;;5082860;28;20432;-73
2022/06/22 05:35:45;;;;;;;14.47;11.67;;;28.70;73.60;;;;;;5083238;28;20430;-72
2022/06/22 05:38:15;;;;;;;10.50;9.30;;;29.10;73.40;;;;;;5080993;28;20436;-74
2022/06/22 05:40:54;;;;;;;12.03;10.10;;;29.40;72.00;;;;;;5085021;28;20461;-73
2022/06/22 05:43:23;;;;;;;9.00;8.10;;;29.50;71.50;;;;;;5085730;28;20453;-71
2022/06/22 05:45:55;;;;;;;11.63;10.20;;;29.80;71.50;;;;;;5085425;28;20484;-73
2022/06/22 05:48:24;;;;;;;14.00;9.80;;;30.00;70.70;;;;;;5084336;28;20719;-72
2022/06/22 05:51:03;;;;;;;10.73;9.63;;;30.00;70.30;;;;;;5082831;28;20476;-72
2022/06/22 05:53:35;;;;;;;12.80;9.80;;;30.00;70.50;;;;;;5071052;28;20671;-71
2022/06/22 05:56:13;;;;;;;10.47;7.70;;;30.20;70.10;;;;;;5085368;28;20467;-72
2022/06/22 05:58:45;;;;;;;11.80;8.87;;;30.20;69.50;;;;;;5080579;28;20428;-72
2022/06/22 06:01:23;;;;;;;15.13;9.07;;;30.30;69.40;;;;;;5084863;28;20488;-70
2022/06/22 06:03:58;;;;;;;11.03;9.77;;;30.20;69.00;;;;;;5076234;28;20461;-73
2022/06/22 06:06:32;;;;;;;14.73;9.27;;;30.20;69.30;;;;;;5081056;28;20530;-72
2022/06/22 06:09:01;;;;;;;10.87;8.17;;;30.60;68.20;;;;;;5074973;28;20436;-72
2022/06/22 06:11:34;;;;;;;9.23;6.87;;;30.50;67.20;;;;;;5085124;28;20479;-73
2022/06/22 06:14:05;;;;;;;8.27;6.53;;;30.40;66.70;;;;;;5073135;28;20434;-72
2022/06/22 06:16:42;;;;;;;13.30;6.97;;;30.20;67.10;;;;;;5080234;28;20582;-72
2022/06/22 06:19:11;;;;;;;9.13;6.73;;;29.80;67.10;;;;;;5078921;28;20453;-72
2022/06/22 06:21:40;;;;;;;6.37;5.77;;;30.00;66.90;;;;;;5080557;28;20441;-72
2022/06/22 06:24:16;;;;;;;8.90;7.17;;;29.90;67.10;;;;;;5086301;28;20433;-71
2022/06/22 06:29:39;;;;;;;6.07;4.37;;;29.60;66.70;;;;;;5076093;28;20456;-71
2022/06/22 06:32:23;;;;;;;5.43;4.43;;;29.90;65.60;;;;;;5084911;28;20562;-72
2022/06/22 06:34:56;;;;;;;4.20;3.40;;;30.00;65.10;;;;;;5080343;28;20438;-71
2022/06/22 06:37:53;;;;;;;4.63;3.07;;;31.10;62.50;;;;;;5084633;28;20435;-72
2022/06/22 06:40:25;;;;;;;5.00;4.50;;;31.90;60.00;;;;;;5089590;28;20540;-71
2022/06/22 06:43:31;;;;;;;7.57;4.20;;;31.70;60.10;;;;;;5091908;28;20425;-73
2022/06/22 06:46:00;;;;;;;6.53;3.53;;;31.20;60.40;;;;;;5080015;27;20465;-71
2022/06/22 06:48:29;;;;;;;5.20;2.93;;;31.00;60.90;;;;;;5076751;28;20421;-73
2022/06/22 06:51:02;;;;;;;7.63;4.33;;;30.90;60.70;;;;;;5084370;28;20684;-70
2022/06/22 06:53:39;;;;;;;6.03;2.93;;;31.10;60.60;;;;;;5076874;28;20430;-73
2022/06/22 06:56:15;;;;;;;8.33;3.80;;;31.10;60.40;;;;;;5084197;28;20472;-72
2022/06/22 06:58:48;;;;;;;8.27;4.57;;;31.20;60.60;;;;;;5080773;28;20422;-74
2022/06/22 07:01:20;;;;;;;6.40;2.90;;;31.20;60.10;;;;;;5083952;28;20429;-70
2022/06/22 07:03:50;;;;;;;6.23;3.03;;;31.40;59.50;;;;;;5082552;28;20426;-69
2022/06/22 07:06:17;;;;;;;8.13;3.63;;;31.50;58.70;;;;;;5088384;28;20708;-71
2022/06/22 07:08:49;;;;;;;7.47;3.87;;;31.70;59.10;;;;;;5088171;28;20441;-73
2022/06/22 07:11:31;;;;;;;5.37;3.30;;;31.60;58.20;;;;;;5081920;28;20446;-74
2022/06/22 07:14:03;;;;;;;7.60;3.17;;;31.40;58.70;;;;;;5075667;28;20424;-73
2022/06/22 07:16:30;;;;;;;7.13;4.10;;;32.10;58.40;;;;;;5076956;28;20504;-71
2022/06/22 07:19:01;;;;;;;7.57;3.80;;;32.40;57.60;;;;;;5079828;28;20429;-70
2022/06/22 07:21:39;;;;;;;6.97;3.10;;;32.60;57.20;;;;;;5076971;28;20448;-73
2022/06/22 07:24:14;;;;;;;4.73;3.40;;;32.60;56.70;;;;;;5081519;28;20447;-73
2022/06/22 07:26:52;;;;;;;8.07;3.23;;;32.60;56.60;;;;;;5086405;28;20432;-72
2022/06/22 07:29:29;;;;;;;6.60;3.43;;;32.90;55.50;;;;;;5095658;28;20764;-71
2022/06/22 07:32:01;;;;;;;5.50;3.90;;;32.40;55.30;;;;;;5092035;28;20482;-73
2022/06/22 07:34:35;;;;;;;6.27;2.43;;;32.40;55.10;;;;;;5086505;28;20686;-73
2022/06/22 07:37:13;;;;;;;10.00;3.30;;;32.30;53.00;;;;;;5080318;28;20456;-71
2022/06/22 07:39:46;;;;;;;5.73;3.13;;;32.20;54.30;;;;;;5082276;28;20468;-71
2022/06/22 07:42:14;;;;;;;3.83;2.67;;;32.40;54.90;;;;;;5092281;28;20480;-75
2022/06/22 07:44:43;;;;;;;4.83;3.20;;;32.40;55.30;;;;;;5087149;28;20446;-73
2022/06/22 07:47:19;;;;;;;4.57;3.80;;;33.50;54.30;;;;;;5079524;28;20655;-70
2022/06/22 07:49:50;;;;;;;4.53;3.50;;;33.20;54.40;;;;;;5088481;28;20483;-73
2022/06/22 07:52:25;;;;;;;4.13;2.70;;;32.80;55.10;;;;;;5084814;28;20567;-73
2022/06/22 07:55:00;;;;;;;5.23;3.40;;;32.40;53.90;;;;;;5082693;28;20492;-72
2022/06/22 07:57:35;;;;;;;4.50;3.20;;;32.50;55.10;;;;;;5086982;28;20676;-69
2022/06/22 08:00:08;;;;;;;7.40;3.57;;;32.40;55.70;;;;;;5091519;28;20578;-72
2022/06/22 08:02:48;;;;;;;5.73;3.90;;;32.30;53.60;;;;;;5089151;28;20504;-72
2022/06/22 08:05:20;;;;;;;4.90;3.00;;;32.20;54.80;;;;;;5087549;28;20448;-69
2022/06/22 08:07:51;;;;;;;7.87;4.43;;;32.20;55.50;;;;;;5087121;28;20426;-72
2022/06/22 08:10:24;;;;;;;4.07;3.60;;;32.70;54.60;;;;;;5087374;28;20481;-70
2022/06/22 08:13:00;;;;;;;3.53;3.13;;;33.40;52.00;;;;;;5093815;28;20468;-72
2022/06/22 08:15:31;;;;;;;7.67;4.50;;;33.50;51.80;;;;;;5094483;28;20533;-71
2022/06/22 08:18:01;;;;;;;4.90;2.53;;;33.00;51.80;;;;;;5087674;28;20441;-73
2022/06/22 08:20:33;;;;;;;5.70;3.63;;;32.70;52.20;;;;;;5085472;28;20605;-69
2022/06/22 08:23:07;;;;;;;7.60;3.60;;;32.40;52.20;;;;;;5083224;28;20601;-73
2022/06/22 08:25:36;;;;;;;6.80;3.13;;;32.40;52.20;;;;;;5088060;28;20572;-73
2022/06/22 08:28:06;;;;;;;3.47;2.80;;;32.50;51.90;;;;;;5101805;28;20653;-69
2022/06/22 08:30:33;;;;;;;8.63;4.10;;;32.60;53.60;;;;;;5085574;28;20445;-70
2022/06/22 08:33:06;;;;;;;7.90;3.60;;;32.60;54.00;;;;;;5080061;28;20446;-70
2022/06/22 08:35:37;;;;;;;3.37;2.50;;;32.90;53.00;;;;;;5082848;28;20555;-71
2022/06/22 08:38:09;;;;;;;4.63;2.87;;;33.30;51.80;;;;;;5085224;28;20425;-73
2022/06/22 08:40:46;;;;;;;6.33;3.83;;;33.90;51.70;;;;;;5084891;28;20485;-75
2022/06/22 08:43:24;;;;;;;10.30;3.53;;;33.90;49.90;;;;;;5081467;28;20509;-72
2022/06/22 08:46:27;;;;;;;8.17;3.87;;;33.30;51.00;;;;;;5085790;28;20449;-70
2022/06/22 08:49:25;;;;;;;4.07;3.30;;;33.40;52.10;;;;;;5089305;28;20551;-73
2022/06/22 08:52:14;;;;;;;7.30;3.77;;;33.30;50.60;;;;;;5074043;28;20451;-70
2022/06/22 08:55:02;;;;;;;6.03;3.17;;;33.70;50.10;;;;;;5083156;28;20490;-71
2022/06/22 08:57:56;;;;;;;7.77;3.97;;;34.10;48.80;;;;;;5085816;28;20452;-71
2022/06/22 09:00:32;;;;;;;4.73;3.43;;;33.90;48.90;;;;;;5077476;28;20481;-71
2022/06/22 09:03:27;;;;;;;4.10;2.20;;;33.30;48.30;;;;;;5087708;28;20550;-74
2022/06/22 09:06:19;;;;;;;3.93;2.60;;;33.40;49.60;;;;;;5079743;28;20446;-70
2022/06/22 09:09:23;;;;;;;5.20;2.70;;;33.60;49.50;;;;;;5073918;28;20433;-72
2022/06/22 09:12:05;;;;;;;4.17;2.67;;;33.00;49.90;;;;;;5078454;28;20433;-72
2022/06/22 09:15:03;;;;;;;5.57;2.80;;;32.90;49.10;;;;;;5080510;28;20448;-72
2022/06/22 09:17:56;;;;;;;4.33;2.80;;;32.80;49.60;;;;;;5077036;28;20425;-73
2022/06/22 09:20:41;;;;;;;4.77;3.07;;;32.60;50.70;;;;;;5088324;28;20464;-73
2022/06/22 09:23:26;;;;;;;4.73;3.13;;;33.00;51.00;;;;;;5078944;28;20454;-72
2022/06/22 09:26:18;;;;;;;5.83;3.20;;;32.80;50.70;;;;;;5080452;28;20429;-71
2022/06/22 09:28:53;;;;;;;7.10;3.53;;;32.80;51.00;;;;;;5079192;28;20429;-72
2022/06/22 09:31:55;;;;;;;7.90;3.00;;;32.80;51.70;;;;;;5084641;28;20695;-73
2022/06/22 09:34:58;;;;;;;7.13;3.93;;;32.30;51.80;;;;;;5080734;28;20447;-74
2022/06/22 09:37:47;;;;;;;6.43;3.90;;;31.90;53.00;;;;;;5089751;28;20530;-75
2022/06/22 09:40:36;;;;;;;3.83;3.40;;;32.20;52.60;;;;;;5084357;28;20465;-73
2022/06/22 09:43:53;;;;;;;5.30;3.30;;;32.60;52.10;;;;;;5081914;28;20519;-76
2022/06/22 09:46:44;;;;;;;3.43;3.00;;;33.20;52.10;;;;;;5073988;28;20460;-73
2022/06/22 09:49:46;;;;;;;6.17;3.60;;;33.50;51.80;;;;;;5082526;28;20453;-74
2022/06/22 09:52:52;;;;;;;5.23;3.70;;;33.30;52.40;;;;;;5083578;28;20499;-75
2022/06/22 09:59:14;;;;;;;11.10;3.67;;;33.20;52.70;;;;;;5085015;28;20428;-71
2022/06/22 10:01:51;;;;;;;4.83;3.20;;;33.10;51.00;;;;;;5094688;28;20425;-76
2022/06/22 10:04:57;;;;;;;6.20;4.30;;;33.00;53.10;;;;;;5084460;28;20436;-75
2022/06/22 10:07:41;;;;;;;5.30;3.87;;;32.70;53.00;;;;;;5084223;28;20421;-71
2022/06/22 10:10:23;;;;;;;8.80;5.37;;;32.10;53.80;;;;;;5085550;28;20453;-71
2022/06/22 10:13:31;;;;;;;6.80;3.40;;;31.80;54.70;;;;;;5081110;28;20434;-73
2022/06/22 10:16:08;;;;;;;4.37;3.43;;;31.60;54.70;;;;;;5102529;28;20724;-72
2022/06/22 10:18:57;;;;;;;9.33;3.40;;;31.90;55.00;;;;;;5087183;28;20441;-74
2022/06/22 10:21:39;;;;;;;6.67;3.77;;;32.20;54.30;;;;;;5091120;28;20512;-74
2022/06/22 10:24:42;;;;;;;6.20;3.43;;;32.50;53.70;;;;;;5088277;28;20557;-74
2022/06/22 10:27:47;;;;;;;5.93;3.63;;;32.60;53.60;;;;;;5088958;28;20428;-72
2022/06/22 10:30:28;;;;;;;6.77;3.60;;;32.70;52.40;;;;;;5083805;28;20468;-75
2022/06/22 10:33:17;;;;;;;5.60;3.00;;;32.30;53.70;;;;;;5085037;28;20455;-73
2022/06/22 10:36:19;;;;;;;3.90;2.87;;;32.00;52.40;;;;;;5083354;28;20468;-76
2022/06/22 10:39:04;;;;;;;4.50;3.57;;;31.90;53.00;;;;;;5090849;28;21739;-70
2022/06/22 10:47:47;;;;;;;6.20;3.20;;;30.20;55.10;;;;;;5086915;28;20452;-74
2022/06/22 10:50:31;;;;;;;4.00;2.80;;;29.70;55.00;;;;;;5084863;28;20461;-75
2022/06/22 10:53:51;;;;;;;6.00;2.67;;;29.00;54.90;;;;;;5085895;28;20433;-71
2022/06/22 10:56:48;;;;;;;5.73;3.73;;;28.80;56.40;;;;;;5048166;28;20552;-73
2022/06/22 10:59:46;;;;;;;5.93;3.30;;;28.40;57.00;;;;;;5079600;28;20565;-75
2022/06/22 11:02:45;;;;;;;5.13;3.70;;;27.90;56.60;;;;;;5087827;28;20429;-73
2022/06/22 11:05:34;;;;;;;6.00;3.67;;;27.90;59.30;;;;;;5085468;28;20456;-75
2022/06/22 11:08:29;;;;;;;4.87;4.33;;;27.80;61.00;;;;;;5080165;28;20463;-76
2022/06/22 11:11:14;;;;;;;5.10;3.40;;;27.70;61.60;;;;;;5083998;28;20484;-73
2022/06/22 11:14:06;;;;;;;11.20;4.50;;;27.60;61.60;;;;;;5087997;28;20448;-72
2022/06/22 11:16:55;;;;;;;6.10;4.27;;;27.30;62.90;;;;;;5089256;28;20471;-73
2022/06/22 11:19:57;;;;;;;9.47;3.57;;;27.20;62.40;;;;;;5091057;28;20459;-73
2022/06/22 11:22:32;;;;;;;4.07;2.70;;;27.20;59.20;;;;;;5088524;28;20437;-73
2022/06/22 11:31:55;;;;;;;9.30;4.03;;;27.10;61.20;;;;;;5081667;28;20581;-76
2022/06/22 11:35:04;;;;;;;6.40;4.00;;;26.80;62.60;;;;;;5087663;28;20429;-74
2022/06/22 11:37:43;;;;;;;3.97;3.17;;;26.80;63.30;;;;;;5093142;28;20606;-76
2022/06/22 11:40:29;;;;;;;5.00;3.90;;;26.80;63.00;;;;;;5091536;28;20536;-76
2022/06/22 11:43:09;;;;;;;3.83;3.10;;;26.60;63.30;;;;;;5096210;28;20440;-73
2022/06/22 11:45:54;;;;;;;8.30;5.10;;;26.50;63.40;;;;;;5085052;28;20451;-75
2022/06/22 11:48:45;;;;;;;5.30;3.77;;;26.70;63.50;;;;;;5082688;28;20680;-72
2022/06/22 11:51:28;;;;;;;5.17;3.67;;;26.30;63.10;;;;;;5079844;28;20689;-73
2022/06/22 11:54:22;;;;;;;4.60;3.33;;;25.90;63.50;;;;;;5089842;28;20437;-76
2022/06/22 11:57:06;;;;;;;4.90;3.40;;;26.00;64.20;;;;;;5077864;27;20469;-72
2022/06/22 11:59:59;;;;;;;6.57;3.53;;;26.10;63.90;;;;;;5094653;28;20476;-72
2022/06/22 12:03:05;;;;;;;5.70;3.83;;;26.20;63.10;;;;;;5088126;28;20466;-73
2022/06/22 12:05:55;;;;;;;6.27;3.30;;;26.20;63.20;;;;;;5085450;28;20653;-75
2022/06/22 12:08:57;;;;;;;8.73;3.03;;;26.30;62.50;;;;;;5092406;28;20465;-75
2022/06/22 12:11:33;;;;;;;5.93;4.03;;;26.20;62.30;;;;;;5080497;28;20461;-74
2022/06/22 12:17:41;;;;;;;7.53;4.20;;;26.50;64.00;;;;;;5090661;28;20464;-71
2022/06/22 12:20:25;;;;;;;8.60;4.53;;;26.50;63.10;;;;;;5087530;28;20464;-74
2022/06/22 12:23:10;;;;;;;4.17;3.70;;;26.50;64.00;;;;;;5086395;28;20575;-73
2022/06/22 12:26:12;;;;;;;5.20;2.90;;;26.40;64.80;;;;;;5088209;28;20468;-74
2022/06/22 12:29:06;;;;;;;10.57;4.37;;;26.50;64.40;;;;;;5077596;28;20665;-76
2022/06/22 12:31:38;;;;;;;8.90;5.03;;;26.60;64.00;;;;;;5072528;28;20428;-75
2022/06/22 12:34:16;;;;;;;9.97;4.90;;;26.70;63.10;;;;;;5088001;28;20429;-76
2022/06/22 12:36:48;;;;;;;8.60;4.67;;;26.60;64.20;;;;;;5085488;28;20481;-74
2022/06/22 12:39:22;;;;;;;5.00;3.33;;;26.60;65.20;;;;;;5087170;28;20456;-76
2022/06/22 12:42:03;;;;;;;7.83;3.30;;;26.80;62.80;;;;;;5081295;28;20463;-75
2022/06/22 12:45:01;;;;;;;5.80;4.70;;;26.80;62.50;;;;;;5082631;28;20449;-71
2022/06/22 12:47:57;;;;;;;5.33;4.30;;;26.50;62.10;;;;;;5090283;28;20437;-71
2022/06/22 12:50:55;;;;;;;4.83;3.50;;;25.90;63.40;;;;;;5089157;28;20502;-73
2022/06/22 12:53:28;;;;;;;7.50;3.13;;;25.80;64.40;;;;;;5078941;28;20431;-74
2022/06/22 12:56:00;;;;;;;4.55;3.55;;;25.80;64.40;;;;;;5086150;28;20461;-71
2022/06/22 12:58:30;;;;;;;6.03;3.33;;;25.90;64.80;;;;;;5084561;28;20448;-73
2022/06/22 13:00:59;;;;;;;5.33;3.20;;;25.90;65.50;;;;;;5086462;28;20540;-75
2022/06/22 13:03:32;;;;;;;5.77;3.67;;;25.80;65.40;;;;;;5081211;28;20515;-75
2022/06/22 13:06:00;;;;;;;5.53;3.40;;;25.90;66.50;;;;;;5076411;28;20500;-75
2022/06/22 13:08:29;;;;;;;4.23;3.83;;;26.00;66.40;;;;;;5079336;28;20441;-72
2022/06/22 13:11:02;;;;;;;4.77;3.50;;;26.10;65.40;;;;;;5077169;28;20450;-73
2022/06/22 13:13:35;;;;;;;5.93;4.23;;;26.10;65.90;;;;;;5085862;28;20503;-73
2022/06/22 13:16:07;;;;;;;5.77;4.00;;;26.10;64.60;;;;;;5084546;28;20493;-78
2022/06/22 13:18:42;;;;;;;13.70;4.03;;;26.00;64.20;;;;;;5082602;28;20441;-75
2022/06/22 13:21:14;;;;;;;6.70;3.50;;;26.10;64.00;;;;;;5084873;28;20507;-73
2022/06/22 13:23:48;;;;;;;4.80;3.27;;;26.10;63.30;;;;;;5081784;28;20512;-71
2022/06/22 13:26:29;;;;;;;6.33;3.33;;;26.10;63.60;;;;;;5081104;28;20429;-74
2022/06/22 13:29:05;;;;;;;5.10;3.53;;;26.10;64.50;;;;;;5079675;28;20494;-73
2022/06/22 13:31:38;;;;;;;4.03;2.60;;;26.10;64.80;;;;;;5088151;28;20681;-74
2022/06/22 13:34:09;;;;;;;3.67;3.10;;;26.10;64.10;;;;;;5088489;28;20503;-76
2022/06/22 13:36:47;;;;;;;8.20;4.23;;;26.10;64.70;;;;;;5080450;28;20476;-74
2022/06/22 13:39:37;;;;;;;5.27;3.97;;;26.20;64.60;;;;;;5090779;28;20457;-76
2022/06/22 13:42:35;;;;;;;5.00;2.83;;;26.20;64.40;;;;;;5085949;28;20430;-72
2022/06/22 13:48:22;;;;;;;4.17;3.07;;;26.30;64.00;;;;;;5091554;28;20534;-76
2022/06/22 13:51:34;;;;;;;3.20;2.60;;;26.00;64.10;;;;;;5089236;28;20477;-76
2022/06/22 13:54:27;;;;;;;6.77;3.37;;;26.00;63.70;;;;;;5081376;28;20441;-75
2022/06/22 13:57:05;;;;;;;5.77;2.47;;;26.00;62.90;;;;;;5086996;28;20530;-76
2022/06/22 13:59:39;;;;;;;6.30;2.80;;;26.10;62.70;;;;;;5089527;28;20756;-72
2022/06/22 14:02:31;;;;;;;4.43;3.10;;;26.20;62.00;;;;;;5087885;28;20525;-76
2022/06/22 14:05:03;;;;;;;5.27;2.80;;;26.30;61.00;;;;;;5085029;28;20567;-72
2022/06/22 14:07:36;;;;;;;4.00;2.40;;;26.20;60.80;;;;;;5090026;28;20429;-78
2022/06/22 14:10:24;;;;;;;4.90;3.00;;;26.30;61.20;;;;;;5089892;28;20453;-76
2022/06/22 14:12:58;;;;;;;2.73;2.03;;;26.40;59.70;;;;;;5090957;28;20479;-77